Holden, MO (64040)

8:33 AM CDT on August 30, 2015 (GMT -0500)
APRSWXNET | | Change Station
CLOSE
Current Station
Personal Weather Station
Location: Centerview, MO
Elevation: 859 ft
Nearby Weather Stations
Active Advisory: Dense Fog Advisory

Elev 859 ft 38.74 °N, 93.90 °W | Updated 30 minutes ago

Fog
Fog
69 °F
Feels Like 69 °F
N
0
Wind Variable Wind from NE
Gusts 0.0 mph

Today
High -- | Low -- °F
--% Chance of Precip.
Yesterday
High -- | Low -- °F
Precip. -- in
6:43 AM 7:49 PM
Full, 99% visible
Pressure 30.04 in
Visibility 0.2 miles
Clouds Overcast 100 ft
Dew Point 69 °F
Humidity 99%
Rainfall in
Snow Depth Not available.
UV 0 out of 12
Pollen 9.60 out of 12
Air Quality Not available.
Flu Activity Not available.
METAR KRCM 301315Z AUTO 05004KT 1/4SM FG OVC001 20/20 A3004 RMK AO2
Pressure 30.04 in
Visibility 0.2 miles
Clouds Overcast 100 ft
Dew Point 69 °F
Humidity 99%
Rainfall in
Snow Depth Not available.
UV 0 out of 12
Pollen 9.60 out of 12
Air Quality Not available.
Flu Activity Not available.
METAR KRCM 301315Z AUTO 05004KT 1/4SM FG OVC001 20/20 A3004 RMK AO2

10-Day Weather Forecast

×

Almanac

Astronomy

Aug. 30, 2015 Rise Set
Actual Time
Civil Twilight
Nautical Twilight
Astronomical Twilight
Moon
Length of Visible Light
Length of Day
Tomorrow will be .
, % of the Moon is Illuminated

Today's Extremes

State Highs State Lows

Community

WunderPhotos

Upload Photos

1,850,953 photos uploaded!

WunderBlogs® & News

Nearby

Air Quality

  Air Quality AQ Index Pollutant
Not available.

Snow Depth

Station Depth Elevation

Earthquake Activity

City Distance Mag. Time & Date
Minimum magnitude displayed is 2.5.

Coastal Water Temperatures

Place Temperature

Stations

Nearby Weather Stations

Station Location Temp. Windchill Dew Point Humidity Wind Precip. Elev Updated Type
                   
Dense Fog Advisory
Statement as of 8:30 AM CDT on August 30, 2015

... Dense fog advisory in effect until 10 am CDT this morning...

The National Weather Service in Kansas City/Pleasant Hill has
issued a dense fog advisory... which is in effect until 10 am CDT
this morning.

* Visibility... widespread quarter mile or less visibility. Visibility
will gradually improve through the morning hours... but could remain
limited into the afternoon.

* Impacts... driving will be difficult through mid morning due to
reduced visibility.

Precautionary/preparedness actions...

A dense fog advisory means visibilities will frequently be
reduced to less than one quarter mile. If driving... slow down...
use your headlights... and leave plenty of distance ahead of you.